Raven's Dance — WDF7230 — position and weather

sailwx.info

Track history (hours):
 
Tides and Currents Weather Stations Pressure Air Temp Water Temp Dewpoint Dewpoint Depression Visibility Wind Speed Wind Dir Waves Ship Positions

Raven's Dance

Owner: Lassila, Donald A, Gig Harbor, WA. More information available from US FCC via Universal Licensing System and Coast Guard Vessel Documentation Center.

Last reported at 2016-May-25 04:29 UTC. Time now 2016-May-25 05:22 UTC.
Position N 37°52' W 122°30'.

Length 14 m.

Type: Sailing vessel. MMSI: 367482370.

Date/timePositionNaut miles runAvg speedWind from/ knotsBaromVisibWave heightAir tempDewpointWater temp
2016-May-25 04:29N 37°52' W 122°30'0 0.0
2016-May-25 03:17N 37°52' W 122°30'0 0.0
2016-May-25 02:29N 37°52' W 122°30'0 0.0
2016-May-25 01:29N 37°52' W 122°30'0 0.0
2016-May-24 23:22N 37°52' W 122°30'2 2.3
2016-May-24 22:33N 37°51' W 122°28'6 6.0
2016-May-24 21:33N 37°47' W 122°34'5 4.9
2016-May-24 20:26N 37°42' W 122°37'73 3.8
2016-May-24 01:32N 36°38' W 121°54'2 1.6
2016-May-24 00:33N 36°36' W 121°53'0 0.0
2016-May-23 23:33N 36°36' W 121°53'0 0.0
2016-May-23 22:33N 36°36' W 121°53'0 0.0
2016-May-23 21:33N 36°36' W 121°53'0 0.0
2016-May-23 20:30N 36°36' W 121°53'0 0.0
2016-May-23 19:33N 36°36' W 121°53'0 0.0
2016-May-23 18:33N 36°36' W 121°53'0 0.0
2016-May-23 17:33N 36°36' W 121°53'0 0.0
2016-May-23 16:33N 36°36' W 121°53'0 0.0
2016-May-23 15:30N 36°36' W 121°53'0 0.0
2016-May-23 14:33N 36°36' W 121°53'0 0.0
2016-May-23 13:15N 36°36' W 121°53'0 0.0
2016-May-23 12:33N 36°36' W 121°53'0 0.0
2016-May-23 11:30N 36°36' W 121°53'0 0.0
2016-May-23 10:33N 36°36' W 121°53'0 0.0
2016-May-23 09:33N 36°36' W 121°53'0 0.0
2016-May-23 08:33N 36°36' W 121°53'0 0.0
2016-May-23 07:33N 36°36' W 121°53'0 0.0
2016-May-23 06:30N 36°36' W 121°53'0 0.0
2016-May-23 05:33N 36°36' W 121°53'0 0.0
2016-May-23 04:33N 36°36' W 121°53'0 0.0
2016-May-23 03:33N 36°36' W 121°53'0 0.0
2016-May-23 02:33N 36°36' W 121°53'0 0.0
2016-May-23 01:30N 36°36' W 121°53'0 0.0
2016-May-23 00:30N 36°36' W 121°53'0 0.0
2016-May-22 23:33N 36°36' W 121°53'0 0.0
2016-May-22 22:33N 36°36' W 121°53'0 0.0
2016-May-22 21:21N 36°36' W 121°53'0 0.0
2016-May-22 20:32N 36°36' W 121°53'5 2.6
2016-May-22 18:33N 36°35' W 121°60'5 5.3
2016-May-22 17:33N 36°30' W 121°60'6 5.5
2016-May-22 16:33N 36°25' W 121°58'5 5.4
2016-May-22 15:33N 36°19' W 121°57'5 5.5
2016-May-22 14:33N 36°15' W 121°53'5 5.1
2016-May-22 13:33N 36°11' W 121°49'5 5.1
2016-May-22 12:33N 36°07' W 121°45'5 4.9
2016-May-22 11:33N 36°03' W 121°42'4 4.4
2016-May-22 10:32N 35°59' W 121°39'  
Track history (hours):
 
Tides and Currents Weather Stations Pressure Air Temp Water Temp Dewpoint Dewpoint Depression Visibility Wind Speed Wind Dir Waves Ship Positions

Raven's Dance

Owner: Lassila, Donald A, Gig Harbor, WA. More information available from US FCC via Universal Licensing System and Coast Guard Vessel Documentation Center.

Last reported at 2016-May-25 04:29 UTC. Time now 2016-May-25 05:22 UTC.
Position N 37°52' W 122°30'.

Length 14 m.

Type: Sailing vessel. MMSI: 367482370.

Date/timePositionNaut miles runAvg speedWind from/ knotsBaromVisibWave heightAir tempDewpointWater temp
2016-May-25 04:29N 37°52' W 122°30'0 0.0
2016-May-25 03:17N 37°52' W 122°30'0 0.0
2016-May-25 02:29N 37°52' W 122°30'0 0.0
2016-May-25 01:29N 37°52' W 122°30'0 0.0
2016-May-24 23:22N 37°52' W 122°30'2 2.3
2016-May-24 22:33N 37°51' W 122°28'6 6.0
2016-May-24 21:33N 37°47' W 122°34'5 4.9
2016-May-24 20:26N 37°42' W 122°37'73 3.8
2016-May-24 01:32N 36°38' W 121°54'2 1.6
2016-May-24 00:33N 36°36' W 121°53'0 0.0
2016-May-23 23:33N 36°36' W 121°53'0 0.0
2016-May-23 22:33N 36°36' W 121°53'0 0.0
2016-May-23 21:33N 36°36' W 121°53'0 0.0
2016-May-23 20:30N 36°36' W 121°53'0 0.0
2016-May-23 19:33N 36°36' W 121°53'0 0.0
2016-May-23 18:33N 36°36' W 121°53'0 0.0
2016-May-23 17:33N 36°36' W 121°53'0 0.0
2016-May-23 16:33N 36°36' W 121°53'0 0.0
2016-May-23 15:30N 36°36' W 121°53'0 0.0
2016-May-23 14:33N 36°36' W 121°53'0 0.0
2016-May-23 13:15N 36°36' W 121°53'0 0.0
2016-May-23 12:33N 36°36' W 121°53'0 0.0
2016-May-23 11:30N 36°36' W 121°53'0 0.0
2016-May-23 10:33N 36°36' W 121°53'0 0.0
2016-May-23 09:33N 36°36' W 121°53'0 0.0
2016-May-23 08:33N 36°36' W 121°53'0 0.0
2016-May-23 07:33N 36°36' W 121°53'0 0.0
2016-May-23 06:30N 36°36' W 121°53'0 0.0
2016-May-23 05:33N 36°36' W 121°53'0 0.0
2016-May-23 04:33N 36°36' W 121°53'0 0.0
2016-May-23 03:33N 36°36' W 121°53'0 0.0
2016-May-23 02:33N 36°36' W 121°53'0 0.0
2016-May-23 01:30N 36°36' W 121°53'0 0.0
2016-May-23 00:30N 36°36' W 121°53'0 0.0
2016-May-22 23:33N 36°36' W 121°53'0 0.0
2016-May-22 22:33N 36°36' W 121°53'0 0.0
2016-May-22 21:21N 36°36' W 121°53'0 0.0
2016-May-22 20:32N 36°36' W 121°53'5 2.6
2016-May-22 18:33N 36°35' W 121°60'5 5.3
2016-May-22 17:33N 36°30' W 121°60'6 5.5
2016-May-22 16:33N 36°25' W 121°58'5 5.4
2016-May-22 15:33N 36°19' W 121°57'5 5.5
2016-May-22 14:33N 36°15' W 121°53'5 5.1
2016-May-22 13:33N 36°11' W 121°49'5 5.1
2016-May-22 12:33N 36°07' W 121°45'5 4.9
2016-May-22 11:33N 36°03' W 121°42'4 4.4
2016-May-22 10:32N 35°59' W 121°39'  

Dump ship's entire track history